createdAt,value
2022-12-29T00:01:48.850Z,0.40
2022-12-29T00:04:17.457Z,0.43
2022-12-29T00:06:45.473Z,0.90
2022-12-29T00:09:13.728Z,0.60
2022-12-29T00:11:42.524Z,0.50
2022-12-29T00:14:29.470Z,1.13
2022-12-29T00:16:58.978Z,0.50
2022-12-29T00:19:44.665Z,0.53
2022-12-29T00:22:31.003Z,0.40
2022-12-29T00:25:16.612Z,0.50
2022-12-29T00:28:07.552Z,0.50
2022-12-29T00:30:55.283Z,0.60
2022-12-29T00:33:47.582Z,0.50
2022-12-29T00:36:20.174Z,1.70
2022-12-29T00:39:09.008Z,0.30
2022-12-29T00:41:54.803Z,0.40
2022-12-29T00:44:22.664Z,0.30
2022-12-29T00:46:50.593Z,1.50
2022-12-29T00:49:34.753Z,0.30
2022-12-29T00:52:05.824Z,0.20
2022-12-29T00:54:35.910Z,0.57
2022-12-29T00:57:04.943Z,0.20
2022-12-29T00:59:33.122Z,0.27
2022-12-29T01:02:02.107Z,0.63
2022-12-29T01:04:31.666Z,0.23
2022-12-29T01:06:59.640Z,0.20
2022-12-29T01:09:45.205Z,0.17
2022-12-29T01:12:16.173Z,0.27
2022-12-29T01:14:46.209Z,0.20
2022-12-29T01:17:14.137Z,0.53
2022-12-29T01:19:43.370Z,0.17
2022-12-29T01:22:11.233Z,0.30
2022-12-29T01:24:41.465Z,0.40
2022-12-29T01:27:09.525Z,0.20
2022-12-29T01:29:37.363Z,0.20
2022-12-29T01:32:05.832Z,0.13
2022-12-29T01:34:33.788Z,0.20
2022-12-29T01:37:03.538Z,0.10
2022-12-29T01:39:31.378Z,0.30
2022-12-29T01:41:59.309Z,0.20
2022-12-29T01:44:50.662Z,0.53
2022-12-29T01:47:27.310Z,0.30
2022-12-29T01:49:57.795Z,0.40
2022-12-29T01:52:31.279Z,0.50
2022-12-29T01:55:02.297Z,0.47
2022-12-29T01:57:33.553Z,0.80
2022-12-29T02:00:08.252Z,0.47
2022-12-29T02:02:36.943Z,1.70
2022-12-29T02:05:09.545Z,1.30
2022-12-29T02:07:40.200Z,1.63
2022-12-29T02:10:09.244Z,0.50
2022-12-29T02:12:37.397Z,1.70
2022-12-29T02:15:07.185Z,1.20
2022-12-29T02:17:49.308Z,0.70
2022-12-29T02:20:44.032Z,0.50
2022-12-29T02:23:46.130Z,0.90
2022-12-29T02:26:30.338Z,0.70
2022-12-29T02:29:18.055Z,1.07
2022-12-29T02:31:53.829Z,1.17
2022-12-29T02:34:28.635Z,1.37
2022-12-29T02:37:04.663Z,0.50
2022-12-29T02:39:40.965Z,1.70
2022-12-29T02:42:14.896Z,0.47
2022-12-29T02:44:54.495Z,1.60
2022-12-29T02:47:28.800Z,0.47
2022-12-29T02:50:01.795Z,0.50
2022-12-29T02:52:34.413Z,0.60
2022-12-29T02:55:01.313Z,2.73
2022-12-29T02:57:34.820Z,0.47
2022-12-29T03:00:08.525Z,0.40
2022-12-29T03:02:58.659Z,0.50
2022-12-29T03:05:53.441Z,0.20
2022-12-29T03:08:29.515Z,0.30
2022-12-29T03:11:05.244Z,2.33
2022-12-29T03:14:01.770Z,0.47
2022-12-29T03:16:37.296Z,1.13
2022-12-29T03:19:12.134Z,0.40
2022-12-29T03:22:01.315Z,0.30
2022-12-29T03:24:33.304Z,0.63
2022-12-29T03:27:05.459Z,0.43
2022-12-29T03:29:37.624Z,0.60
2022-12-29T03:32:09.997Z,0.40
2022-12-29T03:34:40.442Z,0.50
2022-12-29T03:37:14.884Z,0.60
2022-12-29T03:39:43.682Z,0.97
2022-12-29T03:42:15.725Z,0.30
2022-12-29T03:44:46.284Z,0.63
2022-12-29T03:47:16.495Z,0.63
2022-12-29T03:49:46.518Z,0.40
2022-12-29T03:52:14.432Z,0.97
2022-12-29T03:54:42.295Z,0.97
2022-12-29T03:57:11.491Z,0.80
2022-12-29T03:59:39.569Z,0.43
2022-12-29T04:02:09.668Z,0.40
2022-12-29T04:04:37.741Z,0.50
2022-12-29T04:07:06.948Z,0.40
2022-12-29T04:09:34.917Z,0.73
2022-12-29T04:12:02.829Z,0.40
2022-12-29T04:14:30.748Z,1.00
2022-12-29T04:16:58.588Z,0.97
2022-12-29T04:19:26.457Z,0.70
2022-12-29T04:21:54.314Z,0.23
2022-12-29T04:24:23.670Z,0.33
2022-12-29T04:26:51.658Z,0.67
2022-12-29T04:29:19.601Z,0.87
2022-12-29T04:31:47.592Z,0.57
2022-12-29T04:34:15.656Z,0.43
2022-12-29T04:36:43.592Z,0.77
2022-12-29T04:39:11.457Z,0.50
2022-12-29T04:41:40.673Z,0.87
2022-12-29T04:44:08.551Z,0.40
2022-12-29T04:46:36.543Z,0.43
2022-12-29T04:49:09.347Z,0.53
2022-12-29T04:51:37.445Z,0.57
2022-12-29T04:54:05.508Z,1.10
2022-12-29T04:56:33.592Z,0.50
2022-12-29T04:59:02.941Z,0.93
2022-12-29T05:01:30.865Z,0.73
2022-12-29T05:03:58.883Z,0.57
2022-12-29T05:06:30.584Z,0.80
2022-12-29T05:08:58.494Z,1.50
2022-12-29T05:11:28.895Z,1.73
2022-12-29T05:13:56.809Z,0.73
2022-12-29T05:16:26.105Z,0.83
2022-12-29T05:18:54.092Z,0.50
2022-12-29T05:21:23.488Z,0.57
2022-12-29T05:23:51.317Z,1.27
2022-12-29T05:26:19.161Z,1.57
2022-12-29T05:28:47.084Z,1.37
2022-12-29T05:31:15.113Z,0.90
2022-12-29T05:33:44.451Z,0.67
2022-12-29T05:36:12.944Z,1.80
2022-12-29T05:38:40.810Z,1.47
2022-12-29T05:41:09.294Z,0.50
2022-12-29T05:43:37.567Z,0.40
2022-12-29T05:46:05.882Z,0.40
2022-12-29T05:48:37.793Z,0.50
2022-12-29T05:51:07.826Z,1.20
2022-12-29T05:53:35.927Z,0.40
2022-12-29T05:56:03.912Z,1.07
2022-12-29T05:58:31.893Z,0.83
2022-12-29T06:01:00.149Z,0.37
2022-12-29T06:03:28.405Z,0.83
2022-12-29T06:05:56.578Z,0.30
2022-12-29T06:08:25.929Z,0.23
2022-12-29T06:10:53.965Z,0.30
2022-12-29T06:13:22.013Z,0.60
2022-12-29T06:15:50.414Z,0.33
2022-12-29T06:18:20.258Z,0.30
2022-12-29T06:20:48.858Z,0.87
2022-12-29T06:23:17.472Z,0.60
2022-12-29T06:25:48.895Z,1.70
2022-12-29T06:28:17.450Z,1.17
2022-12-29T06:30:46.465Z,0.20
2022-12-29T06:33:14.461Z,0.20
2022-12-29T06:35:43.579Z,0.20
2022-12-29T06:38:11.501Z,0.73
2022-12-29T06:40:39.432Z,0.50
2022-12-29T06:43:08.640Z,0.93
2022-12-29T06:45:36.638Z,0.80
2022-12-29T06:48:04.707Z,0.50
2022-12-29T06:50:33.116Z,0.43
2022-12-29T06:53:01.062Z,0.80
2022-12-29T06:55:30.241Z,0.70
2022-12-29T06:58:00.645Z,1.50
2022-12-29T07:00:29.891Z,0.93
2022-12-29T07:02:58.983Z,0.57
2022-12-29T07:05:28.535Z,2.07
2022-12-29T07:07:56.508Z,0.50
2022-12-29T07:10:24.553Z,0.40
2022-12-29T07:12:52.451Z,1.73
2022-12-29T07:15:20.404Z,0.83
2022-12-29T07:17:50.443Z,1.60
2022-12-29T07:20:23.183Z,1.10
2022-12-29T07:22:54.470Z,0.10
2022-12-29T07:25:22.436Z,0.50
2022-12-29T07:27:50.596Z,0.53
2022-12-29T07:30:18.857Z,1.60
2022-12-29T07:32:47.088Z,0.57
2022-12-29T07:35:16.420Z,2.73
2022-12-29T07:37:45.517Z,1.70
2022-12-29T07:40:13.978Z,1.47
2022-12-29T07:42:42.199Z,1.77
2022-12-29T07:45:11.251Z,2.33
2022-12-29T07:47:39.256Z,1.33
2022-12-29T07:50:08.381Z,2.00
2022-12-29T07:52:37.762Z,2.07
2022-12-29T07:55:06.388Z,1.43
2022-12-29T07:57:34.330Z,1.80
2022-12-29T08:00:02.294Z,2.43
2022-12-29T08:02:30.845Z,5.23
2022-12-29T08:04:58.868Z,2.10
2022-12-29T08:07:26.742Z,2.53
2022-12-29T08:09:56.008Z,1.70
2022-12-29T08:12:23.984Z,4.53
2022-12-29T08:14:51.926Z,3.37
2022-12-29T08:17:19.861Z,1.60
2022-12-29T08:19:47.827Z,1.60
2022-12-29T08:22:16.270Z,1.80
2022-12-29T08:24:44.367Z,5.97
2022-12-29T08:27:20.488Z,1.40
2022-12-29T08:29:49.201Z,4.23
2022-12-29T08:32:17.402Z,1.63
2022-12-29T08:34:45.371Z,2.13
2022-12-29T08:37:13.322Z,4.27
2022-12-29T08:39:41.448Z,2.70
2022-12-29T08:42:09.437Z,1.10
2022-12-29T08:44:38.667Z,1.90
2022-12-29T08:47:06.935Z,3.63
2022-12-29T08:49:35.125Z,5.33
2022-12-29T08:52:03.039Z,1.93
2022-12-29T08:54:31.023Z,3.63
2022-12-29T08:56:58.947Z,3.07
2022-12-29T08:59:26.937Z,2.70
2022-12-29T09:01:56.607Z,2.70
2022-12-29T09:04:25.096Z,4.97
2022-12-29T09:06:53.078Z,3.57
2022-12-29T09:09:21.596Z,2.73
2022-12-29T09:11:49.564Z,3.20
2022-12-29T09:14:17.450Z,4.63
2022-12-29T09:17:02.777Z,3.83
2022-12-29T09:19:32.719Z,1.83
2022-12-29T09:22:00.663Z,2.33
2022-12-29T09:24:28.558Z,3.60
2022-12-29T09:26:56.414Z,2.97
2022-12-29T09:29:25.658Z,6.23
2022-12-29T09:31:53.681Z,3.47
2022-12-29T09:34:21.630Z,5.00
2022-12-29T09:36:50.978Z,4.00
2022-12-29T09:39:18.837Z,2.40
2022-12-29T09:41:51.737Z,2.90
2022-12-29T09:44:25.749Z,4.73
2022-12-29T09:46:57.292Z,3.10
2022-12-29T09:49:31.846Z,4.83
2022-12-29T09:52:05.792Z,3.17
2022-12-29T09:54:42.873Z,3.70
2022-12-29T09:57:19.774Z,3.67
2022-12-29T09:59:50.125Z,4.33
2022-12-29T10:02:31.099Z,5.53
2022-12-29T10:04:59.741Z,3.50
2022-12-29T10:07:40.367Z,2.73
2022-12-29T10:10:22.615Z,4.97
2022-12-29T10:13:00.950Z,4.80
2022-12-29T10:15:48.283Z,5.27
2022-12-29T10:18:31.351Z,4.30
2022-12-29T10:21:03.059Z,5.03
2022-12-29T10:23:37.889Z,4.03
2022-12-29T10:26:11.521Z,3.93
2022-12-29T10:28:44.386Z,1.90
2022-12-29T10:31:17.857Z,1.87
2022-12-29T10:33:46.201Z,4.33
2022-12-29T10:36:18.955Z,3.37
2022-12-29T10:38:55.773Z,6.40
2022-12-29T10:41:27.953Z,6.73
2022-12-29T10:43:58.961Z,5.00
2022-12-29T10:46:30.335Z,2.70
2022-12-29T10:48:58.474Z,3.60
2022-12-29T10:51:28.379Z,2.33
2022-12-29T10:54:02.181Z,7.40
2022-12-29T10:56:36.229Z,3.97
2022-12-29T10:59:18.687Z,6.17
2022-12-29T11:01:57.112Z,3.20
2022-12-29T11:04:45.164Z,3.10
2022-12-29T11:07:16.356Z,4.33
2022-12-29T11:09:47.457Z,6.17
2022-12-29T11:12:24.472Z,5.80
2022-12-29T11:15:12.810Z,4.03
2022-12-29T11:17:46.436Z,3.70
2022-12-29T11:20:32.609Z,3.93
2022-12-29T11:23:01.134Z,3.07
2022-12-29T11:25:30.475Z,7.83
2022-12-29T11:28:01.547Z,2.23
2022-12-29T11:30:33.255Z,4.83
2022-12-29T11:33:05.390Z,4.07
2022-12-29T11:35:36.200Z,4.47
2022-12-29T11:38:05.673Z,4.97
2022-12-29T11:40:41.319Z,4.60
2022-12-29T11:43:18.786Z,4.33
2022-12-29T11:45:48.904Z,3.23
2022-12-29T11:48:20.489Z,5.57
2022-12-29T11:50:53.675Z,5.70
2022-12-29T11:53:24.747Z,3.23
2022-12-29T11:55:57.183Z,7.00
2022-12-29T11:58:33.330Z,3.50
2022-12-29T12:01:04.831Z,5.13
2022-12-29T12:03:37.419Z,3.13
2022-12-29T12:06:08.323Z,5.13
2022-12-29T12:08:41.344Z,5.07
2022-12-29T12:11:14.808Z,4.47
2022-12-29T12:13:49.946Z,5.27
2022-12-29T12:16:23.369Z,2.13
2022-12-29T12:18:55.452Z,3.33
2022-12-29T12:21:29.513Z,6.07
2022-12-29T12:24:25.323Z,5.00
2022-12-29T12:27:01.858Z,4.90
2022-12-29T12:29:38.457Z,2.27
2022-12-29T12:32:17.197Z,2.63
2022-12-29T12:34:49.773Z,5.67
2022-12-29T12:37:57.243Z,5.90
2022-12-29T12:40:55.223Z,2.97
2022-12-29T12:43:45.434Z,4.00
2022-12-29T12:46:30.995Z,4.33
2022-12-29T12:49:31.464Z,5.47
2022-12-29T12:52:11.203Z,8.23
2022-12-29T12:54:55.480Z,6.37
2022-12-29T12:57:36.674Z,3.90
2022-12-29T13:00:10.997Z,5.37
2022-12-29T13:02:48.559Z,3.47
2022-12-29T13:05:31.222Z,4.03
2022-12-29T13:08:24.841Z,3.30
2022-12-29T13:10:57.763Z,4.40
2022-12-29T13:13:54.742Z,4.27
2022-12-29T13:16:33.710Z,4.77
2022-12-29T13:19:06.951Z,4.30
2022-12-29T13:21:56.204Z,2.93
2022-12-29T13:24:32.136Z,5.47
2022-12-29T13:27:06.753Z,4.83
2022-12-29T13:29:39.736Z,4.40
2022-12-29T13:32:24.215Z,5.37
2022-12-29T13:35:04.257Z,3.13
2022-12-29T13:37:35.929Z,5.77
2022-12-29T13:40:11.988Z,3.30
2022-12-29T13:42:40.033Z,3.00
2022-12-29T13:45:13.688Z,4.53
2022-12-29T13:47:46.670Z,5.60
2022-12-29T13:50:17.565Z,4.30
2022-12-29T13:52:51.669Z,3.30
2022-12-29T13:55:29.545Z,5.50
2022-12-29T13:58:04.240Z,3.33
2022-12-29T14:00:37.905Z,2.83
2022-12-29T14:03:31.033Z,5.23
2022-12-29T14:06:14.568Z,3.37
2022-12-29T14:08:43.146Z,2.17
2022-12-29T14:11:13.341Z,2.83
2022-12-29T14:13:42.524Z,3.77
2022-12-29T14:16:14.349Z,5.03
2022-12-29T14:18:46.659Z,2.77
2022-12-29T14:21:23.593Z,6.27
2022-12-29T14:23:54.859Z,1.80
2022-12-29T14:26:37.337Z,4.83
2022-12-29T14:29:44.435Z,9.47
2022-12-29T14:32:37.932Z,6.33
2022-12-29T14:35:41.766Z,7.60
2022-12-29T14:38:34.822Z,2.93
2022-12-29T14:41:25.635Z,5.63
2022-12-29T14:43:56.646Z,3.87
2022-12-29T14:46:25.178Z,6.00
2022-12-29T14:48:59.264Z,3.37
2022-12-29T14:51:34.299Z,4.57
2022-12-29T14:54:42.191Z,4.90
2022-12-29T14:57:18.130Z,7.73
2022-12-29T14:59:46.721Z,6.67
2022-12-29T15:02:19.523Z,7.27
2022-12-29T15:04:49.419Z,5.50
2022-12-29T15:07:19.512Z,5.20
2022-12-29T15:09:55.753Z,6.70
2022-12-29T15:12:32.068Z,3.23
2022-12-29T15:15:01.444Z,4.43
2022-12-29T15:17:31.100Z,5.83
2022-12-29T15:20:00.278Z,3.87
2022-12-29T15:22:29.416Z,5.10
2022-12-29T15:24:59.615Z,5.20
2022-12-29T15:27:28.761Z,4.50
2022-12-29T15:30:02.722Z,6.63
2022-12-29T15:32:40.895Z,4.00
2022-12-29T15:35:29.207Z,5.80
2022-12-29T15:37:57.526Z,4.17
2022-12-29T15:40:29.761Z,5.37
2022-12-29T15:43:18.907Z,2.97
2022-12-29T15:45:47.007Z,5.37
2022-12-29T15:48:20.205Z,4.43
2022-12-29T15:50:48.973Z,4.77
2022-12-29T15:53:29.226Z,5.67
2022-12-29T15:56:03.656Z,5.17
2022-12-29T15:58:33.110Z,9.57
2022-12-29T16:01:02.901Z,5.57
2022-12-29T16:03:35.191Z,7.20
2022-12-29T16:06:11.133Z,5.37
2022-12-29T16:08:41.122Z,3.63
2022-12-29T16:11:25.722Z,6.87
2022-12-29T16:14:09.357Z,7.07
2022-12-29T16:16:40.474Z,4.03
2022-12-29T16:19:15.711Z,5.13
2022-12-29T16:21:44.448Z,3.33
2022-12-29T16:24:17.674Z,4.53
2022-12-29T16:26:52.122Z,9.13
2022-12-29T16:29:22.637Z,7.70
2022-12-29T16:31:56.956Z,6.67
2022-12-29T16:34:27.983Z,3.27
2022-12-29T16:36:57.996Z,6.73
2022-12-29T16:39:35.720Z,5.07
2022-12-29T16:42:35.115Z,7.80
2022-12-29T16:45:26.781Z,4.13
2022-12-29T16:48:18.879Z,6.10
2022-12-29T16:50:48.532Z,6.83
2022-12-29T16:53:22.915Z,4.57
2022-12-29T16:55:52.510Z,2.40
2022-12-29T16:58:24.351Z,6.50
2022-12-29T17:00:56.673Z,8.13
2022-12-29T17:03:25.259Z,3.80
2022-12-29T17:05:57.525Z,6.67
2022-12-29T17:08:25.768Z,7.90
2022-12-29T17:11:13.205Z,8.53
2022-12-29T17:13:41.876Z,7.47
2022-12-29T17:16:13.406Z,6.77
2022-12-29T17:18:42.789Z,5.10
2022-12-29T17:21:10.673Z,8.27
2022-12-29T17:23:38.565Z,5.37
2022-12-29T17:26:14.640Z,9.00
2022-12-29T17:28:42.706Z,3.37
2022-12-29T17:31:13.057Z,7.30
2022-12-29T17:33:42.780Z,5.50
2022-12-29T17:36:12.512Z,3.97
2022-12-29T17:38:40.842Z,4.40
2022-12-29T17:41:15.452Z,5.97
2022-12-29T17:43:43.424Z,3.90
2022-12-29T17:46:12.742Z,4.00
2022-12-29T17:48:40.745Z,7.07
2022-12-29T17:51:12.975Z,7.27
2022-12-29T17:53:40.997Z,2.93
2022-12-29T17:56:10.117Z,7.53
2022-12-29T17:58:38.031Z,5.83
2022-12-29T18:01:06.941Z,6.20
2022-12-29T18:03:38.370Z,11.23
2022-12-29T18:06:08.488Z,5.30
2022-12-29T18:08:36.745Z,9.23
2022-12-29T18:11:05.281Z,6.27
2022-12-29T18:13:43.963Z,6.27
2022-12-29T18:16:14.853Z,8.60
2022-12-29T18:18:44.588Z,7.23
2022-12-29T18:21:18.281Z,4.03
2022-12-29T18:23:46.920Z,9.40
2022-12-29T18:26:22.302Z,8.73
2022-12-29T18:28:55.516Z,3.70
2022-12-29T18:31:25.568Z,5.90
2022-12-29T18:33:55.600Z,13.57
2022-12-29T18:36:23.887Z,4.57
2022-12-29T18:38:53.262Z,10.07
2022-12-29T18:41:23.600Z,9.20
2022-12-29T18:43:52.026Z,4.83
2022-12-29T18:46:23.123Z,10.30
2022-12-29T18:48:51.577Z,9.63
2022-12-29T18:51:22.743Z,9.97
2022-12-29T18:53:52.322Z,7.53
2022-12-29T18:56:20.914Z,6.17
2022-12-29T18:58:48.884Z,7.77
2022-12-29T19:01:21.382Z,7.10
2022-12-29T19:03:49.784Z,10.03
2022-12-29T19:06:17.951Z,11.07
2022-12-29T19:08:48.284Z,8.10
2022-12-29T19:11:16.277Z,10.27
2022-12-29T19:13:44.200Z,7.30
2022-12-29T19:16:18.749Z,6.50
2022-12-29T19:18:53.627Z,10.60
2022-12-29T19:21:32.063Z,11.30
2022-12-29T19:24:01.367Z,8.13
2022-12-29T19:26:31.869Z,7.70
2022-12-29T19:29:01.127Z,6.93
2022-12-29T19:31:29.598Z,6.97
2022-12-29T19:33:57.699Z,4.20
2022-12-29T19:36:25.677Z,3.53
2022-12-29T19:38:54.321Z,7.57
2022-12-29T19:41:23.707Z,5.83
2022-12-29T19:43:51.631Z,8.53
2022-12-29T19:46:21.236Z,3.07
2022-12-29T19:48:49.279Z,6.90
2022-12-29T19:51:18.301Z,6.43
2022-12-29T19:53:46.753Z,7.07
2022-12-29T19:56:15.453Z,5.70
2022-12-29T19:58:47.493Z,4.60
2022-12-29T20:01:18.208Z,6.30
2022-12-29T20:03:46.248Z,9.07
2022-12-29T20:06:15.050Z,6.40
2022-12-29T20:08:43.576Z,3.33
2022-12-29T20:11:13.542Z,5.90
2022-12-29T20:13:42.136Z,6.03
2022-12-29T20:16:13.702Z,4.80
2022-12-29T20:18:41.814Z,4.47
2022-12-29T20:21:12.440Z,4.80
2022-12-29T20:23:41.532Z,10.67
2022-12-29T20:26:09.945Z,4.77
2022-12-29T20:28:37.854Z,4.20
2022-12-29T20:31:09.430Z,4.30
2022-12-29T20:33:38.691Z,7.20
2022-12-29T20:36:08.181Z,8.00
2022-12-29T20:38:36.580Z,7.57
2022-12-29T20:41:05.094Z,9.77
2022-12-29T20:43:33.063Z,6.03
2022-12-29T20:46:01.699Z,6.43
2022-12-29T20:48:30.891Z,8.30
2022-12-29T20:51:00.558Z,6.80
2022-12-29T20:53:29.460Z,8.10
2022-12-29T20:56:02.752Z,4.57
2022-12-29T20:58:32.448Z,5.03
2022-12-29T21:01:02.870Z,9.47
2022-12-29T21:03:31.135Z,7.23
2022-12-29T21:06:01.067Z,5.37
2022-12-29T21:08:30.919Z,8.93
2022-12-29T21:10:59.490Z,7.13
2022-12-29T21:13:28.199Z,6.53
2022-12-29T21:15:58.466Z,9.23
2022-12-29T21:18:26.430Z,8.93
2022-12-29T21:20:58.916Z,13.00
2022-12-29T21:23:28.851Z,14.23
2022-12-29T21:25:57.142Z,14.80
2022-12-29T21:28:25.835Z,8.07
2022-12-29T21:30:54.228Z,14.13
2022-12-29T21:33:23.230Z,12.53
2022-12-29T21:35:51.136Z,9.37
2022-12-29T21:38:19.008Z,5.40
2022-12-29T21:40:48.927Z,10.47
2022-12-29T21:43:16.871Z,11.33
2022-12-29T21:45:43.758Z,8.77
2022-12-29T21:48:24.909Z,5.90
2022-12-29T21:51:12.166Z,8.97
2022-12-29T21:53:42.064Z,11.77
2022-12-29T21:56:13.613Z,11.67
2022-12-29T21:59:12.539Z,6.03
2022-12-29T22:01:58.602Z,9.13
2022-12-29T22:04:44.589Z,10.23
2022-12-29T22:07:31.037Z,7.90
2022-12-29T22:10:16.583Z,7.43
2022-12-29T22:13:01.213Z,11.63
2022-12-29T22:15:31.026Z,10.57
2022-12-29T22:17:59.344Z,8.00
2022-12-29T22:20:29.461Z,8.77
2022-12-29T22:22:57.586Z,10.07
2022-12-29T22:25:25.847Z,9.47
2022-12-29T22:27:59.324Z,6.93
2022-12-29T22:30:28.269Z,9.03
2022-12-29T22:32:57.820Z,10.73
2022-12-29T22:35:26.086Z,13.50
2022-12-29T22:37:54.624Z,8.97
2022-12-29T22:40:22.556Z,8.93
2022-12-29T22:42:50.540Z,10.57
2022-12-29T22:45:19.807Z,10.63
2022-12-29T22:47:47.749Z,9.40
2022-12-29T22:50:18.055Z,10.53
2022-12-29T22:52:45.997Z,12.43
2022-12-29T22:55:13.885Z,11.47
2022-12-29T22:57:41.909Z,9.10
2022-12-29T23:00:10.765Z,9.63
2022-12-29T23:02:40.191Z,11.63
2022-12-29T23:05:09.422Z,8.67
2022-12-29T23:07:37.371Z,6.80
2022-12-29T23:10:06.160Z,6.90
2022-12-29T23:12:35.121Z,3.57
2022-12-29T23:15:03.071Z,9.10
2022-12-29T23:17:31.002Z,5.13
2022-12-29T23:20:00.239Z,11.20
2022-12-29T23:22:28.130Z,6.50
2022-12-29T23:24:56.076Z,8.70
2022-12-29T23:27:24.047Z,7.17
2022-12-29T23:29:52.010Z,4.47
2022-12-29T23:32:21.905Z,7.60
2022-12-29T23:34:49.840Z,9.40
2022-12-29T23:37:19.078Z,10.20
2022-12-29T23:39:46.998Z,11.97
2022-12-29T23:42:14.950Z,9.87
2022-12-29T23:44:43.105Z,9.67
2022-12-29T23:47:10.992Z,10.67
2022-12-29T23:49:38.885Z,14.07
2022-12-29T23:52:06.930Z,11.93
2022-12-29T23:54:36.220Z,9.17
2022-12-29T23:57:04.099Z,7.17
2022-12-29T23:59:32.242Z,10.13
